Time;durP1;ratioP1;P1;durP2;ratioP2;P2;SDS_P1;SDS_P2;PMS_P1;PMS_P2;Temp;Humidity;BMP_temperature;BMP_pressure;BME280_temperature;BME280_humidity;BME280_pressure;Samples;Min_cycle;Max_cycle;Signal;HPM_P1;HPM_P2
2021/12/12 00:00:40;;;;;;;67.78;31.05;;;3.60;99.90;;;;;;5086224;28;20055;-79
2021/12/12 00:03:16;;;;;;;77.45;32.92;;;3.60;99.90;;;;;;5057860;28;20047;-80
2021/12/12 00:05:47;;;;;;;63.33;31.55;;;3.60;99.90;;;;;;5086424;28;20063;-79
2021/12/12 00:08:14;;;;;;;;;;;3.60;99.90;;;;;;5076044;28;20050;-80
2021/12/12 00:10:43;;;;;;;72.25;34.10;;;4.00;99.90;;;;;;5071389;28;19938;-80
2021/12/12 00:13:16;;;;;;;74.35;34.63;;;3.70;99.90;;;;;;5088037;28;20058;-81
2021/12/12 00:15:42;;;;;;;72.03;32.13;;;3.70;99.90;;;;;;5084532;28;20601;-80
2021/12/12 00:18:08;;;;;;;77.22;34.17;;;3.80;99.90;;;;;;5086969;28;20147;-81
2021/12/12 00:20:35;;;;;;;69.65;32.80;;;3.80;99.90;;;;;;5084764;28;20040;-80
2021/12/12 00:23:02;;;;;;;73.68;33.03;;;3.80;99.90;;;;;;5073198;28;20048;-81
2021/12/12 00:25:31;;;;;;;62.05;29.80;;;3.80;99.90;;;;;;5088178;28;20039;-81
2021/12/12 00:27:58;;;;;;;77.50;37.20;;;3.80;99.90;;;;;;5068154;28;20043;-81
2021/12/12 00:30:24;;;;;;;68.38;30.75;;;3.80;99.90;;;;;;5088146;28;20044;-80
2021/12/12 00:32:51;;;;;;;65.18;31.77;;;3.80;99.90;;;;;;5088704;28;20065;-81
2021/12/12 00:35:17;;;;;;;72.68;32.38;;;3.80;99.90;;;;;;5087263;28;20055;-80
2021/12/12 00:37:44;;;;;;;70.90;29.67;;;3.80;99.90;;;;;;5070952;28;20056;-80
2021/12/12 00:40:15;;;;;;;61.10;30.35;;;3.80;99.90;;;;;;5075127;28;20050;-80
2021/12/12 00:42:41;;;;;;;75.00;33.53;;;3.90;99.90;;;;;;5079828;28;20047;-80
2021/12/12 00:45:11;;;;;;;66.78;30.60;;;3.90;99.90;;;;;;5087442;28;20092;-80
2021/12/12 00:47:37;;;;;;;63.63;30.80;;;4.20;99.90;;;;;;5079177;28;20055;-80
2021/12/12 00:50:06;;;;;;;73.35;30.50;;;3.90;99.90;;;;;;5086906;28;20462;-80
2021/12/12 00:52:32;;;;;;;59.42;29.00;;;3.90;99.90;;;;;;5076343;28;20112;-81
2021/12/12 00:54:58;;;;;;;60.72;27.88;;;3.90;99.90;;;;;;5086272;28;20416;-80
2021/12/12 00:57:24;;;;;;;66.82;29.17;;;3.90;99.90;;;;;;5075546;28;20042;-80
2021/12/12 00:59:50;;;;;;;70.07;31.02;;;3.90;99.90;;;;;;5086548;28;20035;-80
2021/12/12 01:02:27;;;;;;;66.00;28.58;;;3.90;99.90;;;;;;5075775;28;20177;-80
2021/12/12 01:04:59;;;;;;;67.40;30.30;;;3.90;99.90;;;;;;5091453;28;20048;-79
2021/12/12 01:07:31;;;;;;;53.28;27.60;;;3.90;99.90;;;;;;5081695;28;20047;-81
2021/12/12 01:10:08;;;;;;;61.15;28.90;;;4.30;99.90;;;;;;5083469;28;20687;-81
2021/12/12 01:12:35;;;;;;;57.63;28.10;;;4.00;99.90;;;;;;5071522;28;20074;-81
2021/12/12 01:15:13;;;;;;;60.20;28.52;;;4.00;99.90;;;;;;5086875;28;20381;-81
2021/12/12 01:17:42;;;;;;;57.78;28.35;;;4.00;99.90;;;;;;5073056;28;20047;-80
2021/12/12 01:20:21;;;;;;;61.13;29.35;;;4.00;99.90;;;;;;5088948;28;20062;-81
2021/12/12 01:22:51;;;;;;;57.65;28.70;;;4.00;99.90;;;;;;5079734;28;20082;-81
2021/12/12 01:25:22;;;;;;;66.32;30.73;;;4.00;99.90;;;;;;5103881;27;20052;-81
2021/12/12 01:27:48;;;;;;;69.97;29.33;;;3.90;99.90;;;;;;5096172;28;20490;-81
2021/12/12 01:30:16;;;;;;;57.65;27.42;;;4.00;99.90;;;;;;5089491;28;20043;-81
2021/12/12 01:32:44;;;;;;;61.30;29.25;;;4.10;99.90;;;;;;5092390;28;20496;-82
2021/12/12 01:35:15;;;;;;;63.28;29.70;;;4.10;99.90;;;;;;5097344;28;20043;-81
2021/12/12 01:38:50;;;;;;;65.07;32.13;;;4.10;99.90;;;;;;5073077;28;20799;-81
2021/12/12 01:40:30;;;;;;;70.57;29.05;;;4.10;99.90;;;;;;5089359;28;20515;-82
2021/12/12 01:43:01;;;;;;;72.63;30.42;;;4.10;99.90;;;;;;5072967;28;20040;-82
2021/12/12 01:45:32;;;;;;;64.55;32.35;;;4.10;99.90;;;;;;5074626;28;20058;-83
2021/12/12 01:47:59;;;;;;;81.03;31.90;;;4.10;99.90;;;;;;5075410;28;20052;-83
2021/12/12 01:50:37;;;;;;;69.30;29.02;;;4.10;99.90;;;;;;5086024;28;20049;-82
2021/12/12 01:53:06;;;;;;;63.72;30.95;;;4.20;99.90;;;;;;5083083;28;20170;-84
2021/12/12 01:55:46;;;;;;;62.72;29.85;;;4.10;99.90;;;;;;5063340;28;20098;-83
2021/12/12 01:58:17;;;;;;;60.53;29.70;;;4.20;99.90;;;;;;5082170;28;20036;-82
2021/12/12 02:01:09;;;;;;;64.83;29.10;;;4.40;99.90;;;;;;5088227;28;20322;-82
2021/12/12 02:03:38;;;;;;;55.05;27.73;;;4.20;99.90;;;;;;5075928;28;20087;-82
2021/12/12 02:06:08;;;;;;;60.03;29.45;;;4.30;99.90;;;;;;5089359;28;20051;-82
2021/12/12 02:08:35;;;;;;;61.90;28.45;;;4.20;99.90;;;;;;5072294;28;20083;-82
2021/12/12 02:11:10;;;;;;;70.13;31.85;;;4.20;99.90;;;;;;5070950;28;20047;-83
2021/12/12 02:13:43;;;;;;;65.47;31.50;;;4.30;99.90;;;;;;5087009;28;20135;-82
2021/12/12 02:16:10;;;;;;;62.13;29.17;;;4.30;99.90;;;;;;5085833;28;20143;-82
2021/12/12 02:18:40;;;;;;;64.88;29.98;;;4.30;99.90;;;;;;5080031;28;20086;-82
2021/12/12 02:21:26;;;;;;;68.35;29.48;;;4.30;99.90;;;;;;5068197;28;20518;-82
2021/12/12 02:38:22;;;;;;;68.72;27.65;;;4.50;99.90;;;;;;5075680;28;20090;-81
2021/12/12 02:40:54;;;;;;;63.60;29.63;;;4.50;99.90;;;;;;5073698;28;20101;-81
2021/12/12 02:43:24;;;;;;;63.83;27.90;;;4.50;99.90;;;;;;5079184;28;20052;-82
2021/12/12 02:45:54;;;;;;;62.50;28.83;;;4.60;99.90;;;;;;5057641;28;20484;-80
2021/12/12 02:48:26;;;;;;;62.40;28.67;;;4.60;99.90;;;;;;5071405;28;20497;-81
2021/12/12 02:50:52;;;;;;;65.05;26.88;;;4.70;99.90;;;;;;5074321;28;20483;-81
2021/12/12 02:53:30;;;;;;;55.83;27.15;;;4.60;99.90;;;;;;5078817;28;20043;-82
2021/12/12 02:55:59;;;;;;;58.70;25.58;;;4.70;99.90;;;;;;5063943;28;20067;-81
2021/12/12 02:58:26;;;;;;;65.28;25.40;;;4.70;99.90;;;;;;5080281;28;20433;-81
2021/12/12 03:01:16;;;;;;;61.33;25.25;;;4.70;99.90;;;;;;5062397;28;20070;-81
2021/12/12 03:03:45;;;;;;;60.35;27.27;;;4.70;99.90;;;;;;5067793;28;20036;-81
2021/12/12 03:06:17;;;;;;;57.40;26.00;;;4.70;99.90;;;;;;5059044;28;20044;-82
2021/12/12 03:08:46;;;;;;;55.55;26.10;;;4.70;99.90;;;;;;5075620;28;20759;-82
2021/12/12 03:11:12;;;;;;;60.20;27.23;;;4.70;99.90;;;;;;5065826;28;20122;-81
2021/12/12 03:13:40;;;;;;;64.82;25.17;;;4.70;99.90;;;;;;5075206;28;20048;-81
2021/12/12 03:16:07;;;;;;;63.10;27.75;;;4.70;99.90;;;;;;5059692;28;20051;-81
2021/12/12 03:18:39;;;;;;;55.80;24.27;;;4.70;99.90;;;;;;5082847;28;20036;-80
2021/12/12 03:21:14;;;;;;;56.83;23.70;;;4.70;99.90;;;;;;5061720;28;20047;-81
2021/12/12 03:23:43;;;;;;;57.70;25.58;;;4.70;99.90;;;;;;5083027;28;20504;-81
2021/12/12 03:26:11;;;;;;;61.55;24.20;;;4.70;99.90;;;;;;5061217;28;20048;-81
2021/12/12 03:28:39;;;;;;;58.05;23.83;;;4.70;99.90;;;;;;5060381;28;20048;-82
2021/12/12 03:31:09;;;;;;;46.75;20.98;;;4.70;99.90;;;;;;5077616;28;20051;-81
2021/12/12 03:33:35;;;;;;;49.72;22.48;;;4.80;99.90;;;;;;5080683;28;20081;-82
2021/12/12 03:36:05;;;;;;;50.03;24.35;;;4.80;99.90;;;;;;5067283;28;20090;-82
2021/12/12 03:38:32;;;;;;;49.28;22.27;;;5.50;99.90;;;;;;5069466;28;20044;-81
2021/12/12 03:41:03;;;;;;;49.20;22.15;;;4.80;99.90;;;;;;5087149;28;20059;-81
2021/12/12 03:43:29;;;;;;;39.00;19.02;;;4.90;99.90;;;;;;5074229;28;20044;-82
2021/12/12 03:45:55;;;;;;;46.03;22.17;;;4.80;99.90;;;;;;5089240;28;20051;-81
2021/12/12 03:48:30;;;;;;;51.50;21.23;;;4.80;99.90;;;;;;5085656;28;20047;-81
2021/12/12 03:51:00;;;;;;;35.45;19.08;;;4.80;99.90;;;;;;5089456;28;20044;-82
2021/12/12 03:53:28;;;;;;;33.65;16.95;;;4.80;99.90;;;;;;5090596;28;20374;-82
2021/12/12 03:55:54;;;;;;;40.83;20.27;;;4.80;99.90;;;;;;5078182;28;20114;-82
2021/12/12 03:58:21;;;;;;;41.80;19.95;;;4.90;99.90;;;;;;5093897;28;20458;-82
2021/12/12 04:01:11;;;;;;;37.78;18.33;;;4.90;99.90;;;;;;5090969;28;20698;-80
2021/12/12 04:03:41;;;;;;;37.05;17.23;;;4.90;99.90;;;;;;5091754;28;20364;-81
2021/12/12 04:06:12;;;;;;;40.53;19.00;;;4.90;99.90;;;;;;5087661;28;20090;-82
2021/12/12 04:08:44;;;;;;;43.13;22.48;;;4.80;99.90;;;;;;5073717;28;20050;-82
2021/12/12 04:11:22;;;;;;;38.90;19.20;;;4.90;99.90;;;;;;5080380;28;20078;-81
2021/12/12 04:13:50;;;;;;;41.33;20.02;;;4.90;99.90;;;;;;5088611;28;20047;-81
2021/12/12 04:16:18;;;;;;;39.47;19.15;;;4.90;99.90;;;;;;5071073;28;20040;-81
2021/12/12 04:18:45;;;;;;;40.15;18.38;;;4.90;99.90;;;;;;5068792;28;20043;-80
2021/12/12 04:21:12;;;;;;;39.85;18.75;;;4.90;99.90;;;;;;5073790;28;20046;-81
2021/12/12 04:23:39;;;;;;;29.65;17.13;;;4.90;99.90;;;;;;5071118;28;20043;-81
2021/12/12 04:26:22;;;;;;;39.40;18.15;;;4.90;99.90;;;;;;5091443;28;20047;-81
2021/12/12 04:29:27;;;;;;;38.90;18.10;;;4.90;99.90;;;;;;5090123;28;20044;-80
2021/12/12 04:31:57;;;;;;;27.05;15.88;;;4.90;99.90;;;;;;5079227;28;20056;-82
2021/12/12 04:34:28;;;;;;;32.10;15.45;;;4.90;99.90;;;;;;5088406;28;20130;-82
2021/12/12 04:36:56;;;;;;;21.90;14.05;;;4.90;99.90;;;;;;5087206;28;20370;-83
2021/12/12 04:39:29;;;;;;;35.15;17.65;;;4.90;99.90;;;;;;5089089;28;20059;-82
2021/12/12 04:42:01;;;;;;;26.67;15.68;;;4.90;99.90;;;;;;5086332;28;20070;-81
2021/12/12 04:44:30;;;;;;;30.60;16.55;;;4.90;99.90;;;;;;5094337;28;20043;-81
2021/12/12 04:49:56;;;;;;;25.60;15.30;;;4.90;99.90;;;;;;5087306;28;20055;-80
2021/12/12 04:52:47;;;;;;;27.65;15.02;;;4.90;99.90;;;;;;5089337;28;20073;-81
2021/12/12 04:55:30;;;;;;;28.42;16.05;;;5.00;99.90;;;;;;5084713;28;20498;-81
2021/12/12 04:58:04;;;;;;;30.30;15.23;;;4.90;99.90;;;;;;5087391;28;20040;-81
2021/12/12 05:00:46;;;;;;;24.48;12.75;;;5.00;99.90;;;;;;5101321;28;20059;-80
2021/12/12 05:03:45;;;;;;;26.55;13.63;;;4.90;99.90;;;;;;5084547;28;20102;-80
2021/12/12 05:06:21;;;;;;;21.80;13.88;;;5.00;99.90;;;;;;5088398;28;20380;-79
2021/12/12 05:08:59;;;;;;;25.75;13.55;;;5.00;99.90;;;;;;5094229;28;20607;-80
2021/12/12 05:11:39;;;;;;;24.05;13.02;;;5.00;99.90;;;;;;5096600;28;20138;-81
2021/12/12 05:14:11;;;;;;;21.95;13.55;;;5.00;99.90;;;;;;5098888;28;20052;-81
2021/12/12 05:16:44;;;;;;;22.83;13.10;;;5.00;99.90;;;;;;5089685;28;20062;-80
2021/12/12 05:19:22;;;;;;;20.40;12.73;;;5.00;99.90;;;;;;5092308;28;20040;-81
2021/12/12 05:21:52;;;;;;;25.77;13.65;;;5.00;99.90;;;;;;5098132;28;20055;-80
2021/12/12 05:24:21;;;;;;;22.27;14.18;;;5.00;99.90;;;;;;5078583;28;20044;-79
2021/12/12 05:26:53;;;;;;;24.77;14.57;;;5.00;99.90;;;;;;5071628;28;20044;-80
2021/12/12 05:29:23;;;;;;;20.10;12.23;;;5.10;99.90;;;;;;5070906;28;20408;-80
2021/12/12 05:31:54;;;;;;;20.98;13.05;;;5.10;99.90;;;;;;5069812;28;20040;-79
2021/12/12 05:34:21;;;;;;;25.00;13.32;;;5.30;99.90;;;;;;5095718;28;20134;-80
2021/12/12 05:36:47;;;;;;;20.85;13.32;;;5.10;99.90;;;;;;5088396;28;20047;-80
2021/12/12 05:39:15;;;;;;;22.15;14.45;;;4.80;99.90;;;;;;5077141;28;20053;-80
2021/12/12 05:41:41;;;;;;;23.85;14.75;;;5.10;99.90;;;;;;5094694;28;20055;-79
2021/12/12 05:44:07;;;;;;;24.92;13.95;;;5.20;99.90;;;;;;5072264;28;20085;-80
2021/12/12 05:46:34;;;;;;;31.55;15.30;;;5.20;99.90;;;;;;5090851;28;20038;-79
2021/12/12 05:49:04;;;;;;;25.30;13.95;;;5.20;99.90;;;;;;5091435;28;20044;-81
2021/12/12 05:51:31;;;;;;;30.65;17.00;;;5.20;99.90;;;;;;5086191;28;20048;-81
2021/12/12 05:53:56;;;;;;;28.00;15.98;;;5.20;99.90;;;;;;5088963;28;20084;-80
2021/12/12 05:56:28;;;;;;;30.63;16.67;;;5.30;99.90;;;;;;5095299;28;20801;-79
2021/12/12 05:58:54;;;;;;;31.80;17.50;;;5.30;99.90;;;;;;5085876;28;20567;-79
2021/12/12 06:01:22;;;;;;;33.65;15.90;;;5.30;99.90;;;;;;5068523;28;20034;-80
2021/12/12 06:03:50;;;;;;;30.50;16.42;;;5.30;99.90;;;;;;5086215;28;20092;-80
2021/12/12 06:06:20;;;;;;;25.75;14.73;;;5.30;99.90;;;;;;5072501;28;20455;-79
2021/12/12 06:08:48;;;;;;;31.70;16.25;;;5.40;99.90;;;;;;5078383;28;20050;-80
2021/12/12 06:11:16;;;;;;;29.00;16.38;;;5.40;99.90;;;;;;5089032;28;20048;-79
2021/12/12 06:13:42;;;;;;;28.98;16.17;;;5.40;99.90;;;;;;5085859;28;20448;-80
2021/12/12 06:16:18;;;;;;;31.67;17.02;;;5.40;99.90;;;;;;5103915;28;20047;-79
2021/12/12 06:18:48;;;;;;;29.65;17.73;;;5.80;99.90;;;;;;5085495;28;20115;-80
2021/12/12 06:21:14;;;;;;;34.42;17.08;;;5.40;99.90;;;;;;5069468;28;20133;-79
2021/12/12 06:23:40;;;;;;;29.95;16.13;;;5.50;99.90;;;;;;5088672;28;20071;-80
2021/12/12 06:26:06;;;;;;;33.70;16.30;;;5.50;99.90;;;;;;5090495;28;20063;-79
2021/12/12 06:28:38;;;;;;;27.65;16.02;;;5.50;99.90;;;;;;5087065;28;20061;-79
2021/12/12 06:31:04;;;;;;;27.00;15.82;;;5.50;99.90;;;;;;5079700;28;20154;-78
2021/12/12 06:33:31;;;;;;;32.80;17.33;;;5.60;99.90;;;;;;5090636;28;20498;-79
2021/12/12 06:35:58;;;;;;;27.65;16.02;;;5.60;99.90;;;;;;5086359;28;20089;-79
2021/12/12 06:38:24;;;;;;;34.17;17.05;;;5.60;99.90;;;;;;5098286;28;20060;-79
2021/12/12 06:40:51;;;;;;;25.55;15.32;;;5.60;99.90;;;;;;5071373;28;20105;-80
2021/12/12 06:43:21;;;;;;;29.20;15.98;;;5.70;99.90;;;;;;5090613;28;20074;-80
2021/12/12 06:45:48;;;;;;;30.58;16.27;;;5.70;99.90;;;;;;5075387;28;20077;-81
2021/12/12 06:48:15;;;;;;;32.40;16.58;;;5.70;99.90;;;;;;5091676;28;20490;-79
2021/12/12 06:50:44;;;;;;;33.35;16.67;;;5.70;99.90;;;;;;5093242;28;20175;-80
2021/12/12 06:53:13;;;;;;;33.70;17.55;;;5.80;99.90;;;;;;5071727;28;20402;-79
2021/12/12 06:55:44;;;;;;;31.83;16.42;;;5.70;99.90;;;;;;5068804;28;20127;-78
2021/12/12 06:58:11;;;;;;;33.25;18.25;;;5.80;99.90;;;;;;5077175;28;20403;-80
2021/12/12 07:00:38;;;;;;;33.65;17.08;;;5.80;99.90;;;;;;5089315;28;20115;-78
2021/12/12 07:03:05;;;;;;;31.92;17.23;;;5.80;99.90;;;;;;5071231;28;20124;-81
2021/12/12 07:05:31;;;;;;;32.40;16.83;;;5.80;99.90;;;;;;5084271;28;20082;-78
2021/12/12 07:07:58;;;;;;;29.65;16.85;;;5.80;99.90;;;;;;5093040;28;20066;-79
2021/12/12 07:10:28;;;;;;;36.55;17.70;;;5.80;99.90;;;;;;5072105;28;20123;-78
2021/12/12 07:12:56;;;;;;;30.30;16.58;;;5.80;99.90;;;;;;5070957;28;20055;-79
2021/12/12 07:15:29;;;;;;;33.75;17.13;;;5.80;99.90;;;;;;5069465;28;20820;-79
2021/12/12 07:17:57;;;;;;;32.83;17.65;;;5.80;99.90;;;;;;5074364;28;20040;-79
2021/12/12 07:20:23;;;;;;;29.52;16.17;;;5.90;99.90;;;;;;5074001;28;20051;-79
2021/12/12 07:22:49;;;;;;;31.85;17.27;;;5.90;99.90;;;;;;5070609;28;20429;-78
2021/12/12 07:25:16;;;;;;;30.33;17.02;;;5.90;99.90;;;;;;5072347;28;20052;-79
2021/12/12 07:27:42;;;;;;;37.95;17.83;;;5.90;99.90;;;;;;5071550;28;20079;-78
2021/12/12 07:30:09;;;;;;;37.63;18.58;;;5.90;99.90;;;;;;5070591;28;20079;-78
2021/12/12 07:32:38;;;;;;;38.97;18.13;;;5.90;99.90;;;;;;5071858;28;20036;-78
2021/12/12 07:35:08;;;;;;;36.55;18.98;;;6.20;99.90;;;;;;5077755;28;20051;-78
2021/12/12 07:37:35;;;;;;;32.40;17.30;;;6.00;99.90;;;;;;5071052;28;20499;-78
2021/12/12 07:40:01;;;;;;;36.17;18.27;;;6.00;99.90;;;;;;5093212;28;20031;-78
2021/12/12 07:42:27;;;;;;;35.03;18.00;;;6.00;99.90;;;;;;5079271;28;20567;-78
2021/12/12 07:44:55;;;;;;;33.58;18.48;;;6.00;99.90;;;;;;5099690;28;20121;-78
2021/12/12 07:47:21;;;;;;;38.80;18.70;;;6.00;99.90;;;;;;5092135;28;20814;-78
2021/12/12 07:49:48;;;;;;;39.97;20.67;;;6.00;99.90;;;;;;5093059;28;20042;-78
2021/12/12 07:52:17;;;;;;;42.47;19.27;;;6.10;99.90;;;;;;5079554;28;20529;-78
2021/12/12 07:54:45;;;;;;;40.88;18.52;;;6.10;99.90;;;;;;5104085;28;20124;-78
2021/12/12 07:57:12;;;;;;;43.85;19.50;;;6.10;99.90;;;;;;5096389;28;20040;-77
2021/12/12 07:59:40;;;;;;;39.45;17.77;;;6.10;99.90;;;;;;5092820;28;20385;-78
2021/12/12 08:02:08;;;;;;;52.15;20.58;;;6.10;99.90;;;;;;5079703;28;20521;-78
2021/12/12 08:04:36;;;;;;;41.95;19.23;;;6.20;99.90;;;;;;5096004;28;20047;-86
2021/12/12 08:07:03;;;;;;;44.30;19.20;;;6.20;99.90;;;;;;5099028;28;20447;-86
2021/12/12 08:09:30;;;;;;;46.83;19.70;;;6.60;99.90;;;;;;5103010;28;20074;-86
2021/12/12 08:11:57;;;;;;;45.00;19.83;;;6.20;99.90;;;;;;5082198;28;20411;-85
2021/12/12 08:14:25;;;;;;;51.05;20.65;;;6.20;99.90;;;;;;5085232;28;20707;-86
2021/12/12 08:16:52;;;;;;;51.75;20.80;;;6.30;99.90;;;;;;5115131;28;20036;-85
2021/12/12 08:19:20;;;;;;;54.83;21.63;;;6.30;99.90;;;;;;5097378;28;20053;-86
2021/12/12 08:21:47;;;;;;;54.08;22.38;;;6.30;99.90;;;;;;5102701;27;20040;-85
2021/12/12 08:24:14;;;;;;;48.65;20.17;;;6.70;99.90;;;;;;5099733;27;20052;-84
2021/12/12 08:26:43;;;;;;;54.95;21.83;;;6.80;99.90;;;;;;5087676;27;20100;-85
2021/12/12 08:29:13;;;;;;;50.85;21.35;;;6.30;99.90;;;;;;5080849;27;20066;-85
2021/12/12 08:31:39;;;;;;;52.58;21.00;;;6.40;99.90;;;;;;5104131;28;20039;-85
2021/12/12 08:34:09;;;;;;;50.17;21.10;;;6.40;99.90;;;;;;5105895;27;20073;-85
2021/12/12 08:36:43;;;;;;;54.25;20.63;;;6.40;99.90;;;;;;5101595;27;20067;-85
2021/12/12 08:39:10;;;;;;;57.20;21.67;;;6.40;99.90;;;;;;5099710;27;20089;-84
2021/12/12 08:41:37;;;;;;;58.30;22.10;;;6.90;99.90;;;;;;5112433;27;20082;-84
2021/12/12 08:44:04;;;;;;;50.22;21.00;;;6.50;99.90;;;;;;5099051;27;20055;-86
2021/12/12 08:46:31;;;;;;;68.18;22.88;;;6.40;99.90;;;;;;5108348;27;20070;-85
2021/12/12 08:48:59;;;;;;;56.80;23.30;;;6.50;99.90;;;;;;5084555;27;20040;-84
2021/12/12 08:51:32;;;;;;;57.72;21.80;;;6.50;99.90;;;;;;5104924;28;20044;-84
2021/12/12 08:54:12;;;;;;;68.10;22.50;;;6.60;99.90;;;;;;5088668;27;20047;-84
2021/12/12 08:56:48;;;;;;;51.85;21.08;;;6.90;99.90;;;;;;5086063;27;20058;-85
2021/12/12 08:59:26;;;;;;;61.72;23.17;;;6.60;99.90;;;;;;5086631;27;20136;-82
2021/12/12 09:02:02;;;;;;;72.50;22.90;;;6.70;99.90;;;;;;5100979;27;20043;-84
2021/12/12 09:04:32;;;;;;;70.78;25.05;;;6.70;99.90;;;;;;5080692;27;20767;-86
2021/12/12 09:07:15;;;;;;;92.00;26.08;;;6.90;99.90;;;;;;5080031;27;20035;-85
2021/12/12 09:09:49;;;;;;;80.78;25.08;;;6.80;99.90;;;;;;5103985;27;20051;-84
2021/12/12 09:12:21;;;;;;;91.50;26.73;;;6.90;99.90;;;;;;5103524;27;20743;-85
2021/12/12 09:14:55;;;;;;;89.60;26.13;;;6.80;99.90;;;;;;5085670;27;20058;-86
2021/12/12 09:17:36;;;;;;;100.85;26.38;;;6.90;99.90;;;;;;5079987;27;20131;-85
2021/12/12 09:20:36;;;;;;;91.45;26.10;;;7.00;99.90;;;;;;5099645;27;20043;-87
2021/12/12 09:23:11;;;;;;;98.50;25.70;;;7.00;99.90;;;;;;5102283;27;20388;-79
2021/12/12 09:25:49;;;;;;;89.90;26.40;;;7.00;99.90;;;;;;5095096;27;20129;-79
2021/12/12 09:28:27;;;;;;;88.78;25.75;;;7.10;99.90;;;;;;5105135;27;20071;-79
2021/12/12 09:30:57;;;;;;;99.75;25.63;;;7.10;99.90;;;;;;5078990;27;20092;-79
2021/12/12 09:33:32;;;;;;;92.35;26.20;;;7.10;99.90;;;;;;5081921;27;20434;-79
2021/12/12 09:36:03;;;;;;;77.75;25.23;;;7.20;99.90;;;;;;5087786;27;20263;-79
2021/12/12 09:38:37;;;;;;;98.53;29.20;;;7.20;99.90;;;;;;5096966;27;20054;-77
2021/12/12 09:41:23;;;;;;;99.72;27.27;;;7.30;99.90;;;;;;5082732;27;20525;-80
2021/12/12 09:44:03;;;;;;;156.68;30.15;;;7.30;99.90;;;;;;5102671;27;20047;-78
2021/12/12 09:47:12;;;;;;;132.45;30.48;;;7.30;99.90;;;;;;5089975;27;20043;-78
2021/12/12 09:53:26;;;;;;;109.70;28.33;;;7.40;99.90;;;;;;5095919;27;20043;-78
2021/12/12 09:56:14;;;;;;;93.32;25.83;;;7.50;99.90;;;;;;5086968;27;20115;-79
2021/12/12 09:58:51;;;;;;;87.45;26.85;;;7.50;99.90;;;;;;5081237;27;20057;-78
2021/12/12 10:01:28;;;;;;;103.43;28.30;;;7.60;99.90;;;;;;5102628;27;20208;-77
2021/12/12 10:04:22;;;;;;;95.95;28.40;;;7.60;99.90;;;;;;5101908;27;20046;-78
2021/12/12 10:07:00;;;;;;;92.18;26.65;;;7.70;99.90;;;;;;5090852;27;20423;-77
2021/12/12 10:09:36;;;;;;;123.50;29.48;;;7.70;99.90;;;;;;5073825;27;20147;-77
2021/12/12 10:12:21;;;;;;;94.90;26.10;;;7.80;99.90;;;;;;5096110;27;20058;-77
2021/12/12 10:14:59;;;;;;;80.72;26.45;;;7.80;99.90;;;;;;5093240;27;20379;-77
2021/12/12 10:17:36;;;;;;;103.55;26.15;;;7.80;99.90;;;;;;5098150;27;20055;-77
2021/12/12 10:20:02;;;;;;;99.28;25.67;;;7.90;99.90;;;;;;5091990;27;20043;-78
2021/12/12 10:22:35;;;;;;;109.15;26.27;;;7.90;99.90;;;;;;5077496;27;20070;-77
2021/12/12 10:25:09;;;;;;;81.88;23.95;;;8.30;99.90;;;;;;5097709;28;20058;-78
2021/12/12 10:27:43;;;;;;;88.82;25.67;;;7.90;99.90;;;;;;5093545;27;20043;-77
2021/12/12 10:30:18;;;;;;;88.75;23.77;;;8.00;99.90;;;;;;5100813;27;20048;-78
2021/12/12 10:33:23;;;;;;;94.97;24.92;;;8.00;99.90;;;;;;5076575;27;20470;-78
2021/12/12 10:36:07;;;;;;;93.38;24.08;;;8.00;99.90;;;;;;5104009;28;20047;-78
2021/12/12 10:38:40;;;;;;;103.82;26.15;;;8.10;99.90;;;;;;5102017;27;20051;-78
2021/12/12 10:41:18;;;;;;;95.40;24.70;;;8.20;99.90;;;;;;5081568;27;20586;-78
2021/12/12 10:43:56;;;;;;;92.72;25.60;;;8.10;99.90;;;;;;5097689;27;20055;-79
2021/12/12 10:46:32;;;;;;;126.25;26.85;;;8.10;99.90;;;;;;5099228;27;20039;-77
2021/12/12 10:49:22;;;;;;;86.45;24.88;;;8.20;99.90;;;;;;5097847;27;20035;-84
2021/12/12 10:51:54;;;;;;;107.78;25.38;;;8.20;99.90;;;;;;5084237;27;20039;-84
2021/12/12 10:54:33;;;;;;;105.13;24.85;;;8.20;99.90;;;;;;5099243;27;20416;-84
2021/12/12 10:57:05;;;;;;;82.57;23.23;;;8.20;99.90;;;;;;5093919;27;20978;-84
2021/12/12 10:59:36;;;;;;;98.93;23.95;;;8.30;99.90;;;;;;5095796;28;20070;-83
2021/12/12 11:02:14;;;;;;;87.03;22.42;;;8.40;99.90;;;;;;5077249;27;20039;-83
2021/12/12 11:04:48;;;;;;;105.30;24.10;;;8.30;99.90;;;;;;5081393;27;20061;-82
2021/12/12 11:07:27;;;;;;;77.82;22.30;;;8.40;99.90;;;;;;5097879;27;20039;-84
2021/12/12 11:10:05;;;;;;;73.13;21.80;;;8.40;99.90;;;;;;5079678;27;20052;-84
2021/12/12 11:12:40;;;;;;;76.10;21.10;;;8.50;99.90;;;;;;5079921;28;20035;-84
2021/12/12 11:15:27;;;;;;;58.20;19.83;;;8.50;99.90;;;;;;5096702;27;20496;-84
2021/12/12 11:18:05;;;;;;;96.00;23.73;;;8.50;99.90;;;;;;5111572;27;20031;-83
2021/12/12 11:20:31;;;;;;;60.20;21.17;;;8.60;99.90;;;;;;5104194;27;20055;-84
2021/12/12 11:23:13;;;;;;;65.18;20.20;;;8.60;99.90;;;;;;5083388;27;20122;-83
2021/12/12 11:25:57;;;;;;;66.68;19.85;;;8.60;99.90;;;;;;5103339;27;20055;-83
2021/12/12 11:28:41;;;;;;;76.93;20.75;;;8.70;99.90;;;;;;5080419;27;20035;-82
2021/12/12 11:31:15;;;;;;;67.78;20.00;;;8.70;99.90;;;;;;5084874;28;20058;-83
2021/12/12 11:33:44;;;;;;;93.60;22.42;;;8.70;99.90;;;;;;5098443;28;20525;-83
2021/12/12 11:36:14;;;;;;;74.53;20.95;;;8.70;99.90;;;;;;5104447;28;20040;-83
2021/12/12 11:39:09;;;;;;;71.22;19.20;;;8.70;99.90;;;;;;5091022;28;20056;-84
2021/12/12 11:42:03;;;;;;;69.82;20.33;;;8.70;99.90;;;;;;5085115;28;20148;-83
2021/12/12 11:44:32;;;;;;;47.50;16.80;;;8.80;99.90;;;;;;5077259;28;20439;-84
2021/12/12 11:47:30;;;;;;;55.08;18.50;;;8.80;99.90;;;;;;5083041;28;20039;-84
2021/12/12 11:50:13;;;;;;;55.97;18.92;;;8.80;99.90;;;;;;5072106;28;20047;-83
2021/12/12 11:52:57;;;;;;;57.55;17.90;;;8.90;99.90;;;;;;5070706;28;20083;-83
2021/12/12 11:55:42;;;;;;;53.90;17.65;;;8.90;99.90;;;;;;5086751;28;20040;-83
2021/12/12 11:58:32;;;;;;;50.83;17.80;;;8.90;99.90;;;;;;5073180;28;20039;-83
2021/12/12 12:01:15;;;;;;;57.88;16.13;;;8.90;99.90;;;;;;5091940;28;20063;-84
2021/12/12 12:04:10;;;;;;;49.35;17.15;;;8.90;99.90;;;;;;5092523;28;20481;-84
2021/12/12 12:06:56;;;;;;;61.72;17.42;;;8.90;99.90;;;;;;5084063;28;20048;-84
2021/12/12 12:09:33;;;;;;;49.60;17.17;;;8.90;99.90;;;;;;5083993;28;20055;-84
2021/12/12 12:12:14;;;;;;;49.40;16.08;;;8.90;99.90;;;;;;5104614;27;20435;-84
2021/12/12 12:15:05;;;;;;;57.17;16.98;;;9.00;99.90;;;;;;5089157;28;20044;-82
2021/12/12 12:17:37;;;;;;;40.67;16.17;;;9.00;99.90;;;;;;5090883;28;20142;-85
2021/12/12 12:20:08;;;;;;;45.40;15.88;;;9.00;99.90;;;;;;5082102;28;20073;-84
2021/12/12 12:22:45;;;;;;;43.35;15.82;;;9.40;99.90;;;;;;5096589;28;20563;-83
2021/12/12 12:28:42;;;;;;;54.00;17.17;;;9.10;99.90;;;;;;5062040;28;20071;-83
2021/12/12 12:31:39;;;;;;;43.38;15.60;;;9.10;99.90;;;;;;5074193;28;20406;-84
2021/12/12 12:34:30;;;;;;;50.05;17.15;;;9.10;99.90;;;;;;5081384;28;20118;-84
2021/12/12 12:37:23;;;;;;;41.90;14.93;;;9.10;99.90;;;;;;5077704;28;20032;-83
2021/12/12 12:40:13;;;;;;;39.63;15.02;;;9.10;99.90;;;;;;5075162;28;20146;-84
2021/12/12 12:43:04;;;;;;;36.00;13.50;;;9.10;99.90;;;;;;5080549;28;20044;-84
2021/12/12 12:46:07;;;;;;;47.13;15.82;;;9.10;99.90;;;;;;5073264;28;20079;-84
2021/12/12 12:48:45;;;;;;;47.92;14.90;;;9.20;99.90;;;;;;5079708;28;20408;-84
2021/12/12 12:51:31;;;;;;;42.22;14.85;;;9.20;99.90;;;;;;5095502;28;20044;-84
2021/12/12 12:54:25;;;;;;;55.28;16.38;;;9.30;99.90;;;;;;5094150;28;20691;-85
2021/12/12 12:56:57;;;;;;;41.13;14.10;;;9.20;99.90;;;;;;5082173;28;20044;-85
2021/12/12 12:59:36;;;;;;;49.70;15.25;;;9.20;99.90;;;;;;5096835;28;20065;-84
2021/12/12 13:02:35;;;;;;;38.88;14.52;;;9.20;99.90;;;;;;5100626;28;20047;-83
2021/12/12 13:05:23;;;;;;;45.90;15.23;;;9.20;99.90;;;;;;5049106;28;20574;-84
2021/12/12 13:08:26;;;;;;;43.55;14.05;;;9.20;99.90;;;;;;5090480;28;20036;-84
2021/12/12 13:10:56;;;;;;;39.67;13.57;;;9.30;99.90;;;;;;5087309;28;20055;-85
2021/12/12 13:13:28;;;;;;;45.95;14.52;;;9.20;99.90;;;;;;5088102;28;20055;-84
2021/12/12 13:16:05;;;;;;;40.05;14.13;;;9.20;99.90;;;;;;5073897;28;20054;-84
2021/12/12 13:18:57;;;;;;;52.30;15.18;;;9.30;99.90;;;;;;5088992;28;20586;-84
2021/12/12 13:21:37;;;;;;;34.38;13.55;;;9.30;99.90;;;;;;5094906;28;20043;-78
2021/12/12 13:24:35;;;;;;;46.42;14.63;;;9.30;99.90;;;;;;5079721;28;20047;-78
2021/12/12 13:27:31;;;;;;;44.42;14.45;;;9.40;99.90;;;;;;5105695;28;20675;-78
2021/12/12 13:30:06;;;;;;;49.13;14.25;;;9.40;99.90;;;;;;5080470;28;20040;-79
2021/12/12 13:32:46;;;;;;;47.35;13.80;;;9.40;99.90;;;;;;5074393;28;20130;-78